createdAt,value
2022-08-27T00:01:48.684Z,8.90
2022-08-27T00:04:16.339Z,8.48
2022-08-27T00:06:44.032Z,8.68
2022-08-27T00:09:14.085Z,8.35
2022-08-27T00:11:41.525Z,8.50
2022-08-27T00:14:09.437Z,8.07
2022-08-27T00:16:36.798Z,8.90
2022-08-27T00:19:04.214Z,8.10
2022-08-27T00:21:33.292Z,8.32
2022-08-27T00:24:01.618Z,8.05
2022-08-27T00:26:29.315Z,8.43
2022-08-27T00:28:58.068Z,8.05
2022-08-27T00:31:27.481Z,8.77
2022-08-27T00:33:55.882Z,8.57
2022-08-27T00:36:24.108Z,8.13
2022-08-27T00:38:52.778Z,8.20
2022-08-27T00:41:22.400Z,8.02
2022-08-27T00:43:54.498Z,8.18
2022-08-27T00:46:29.649Z,8.15
2022-08-27T00:49:04.371Z,8.32
2022-08-27T00:51:32.647Z,8.65
2022-08-27T00:54:01.005Z,9.15
2022-08-27T00:56:34.568Z,9.55
2022-08-27T00:59:03.931Z,9.43
2022-08-27T01:01:35.953Z,8.48
2022-08-27T01:04:06.137Z,8.25
2022-08-27T01:06:37.120Z,8.07
2022-08-27T01:09:14.854Z,8.10
2022-08-27T01:11:42.273Z,8.07
2022-08-27T01:14:09.993Z,8.50
2022-08-27T01:16:43.956Z,8.05
2022-08-27T01:22:32.959Z,8.32
2022-08-27T01:25:08.582Z,7.93
2022-08-27T01:27:36.735Z,8.10
2022-08-27T01:30:06.579Z,8.73
2022-08-27T01:32:36.471Z,7.85
2022-08-27T01:35:08.458Z,8.23
2022-08-27T01:37:37.434Z,8.13
2022-08-27T01:40:06.373Z,8.43
2022-08-27T01:42:42.665Z,8.00
2022-08-27T01:45:27.612Z,8.30
2022-08-27T01:47:55.178Z,9.13
2022-08-27T01:50:29.604Z,8.55
2022-08-27T01:52:57.068Z,8.20
2022-08-27T01:55:27.091Z,8.27
2022-08-27T01:57:55.638Z,8.40
2022-08-27T02:00:35.125Z,7.78
2022-08-27T02:03:03.533Z,8.38
2022-08-27T02:05:31.440Z,8.20
2022-08-27T02:08:08.403Z,8.38
2022-08-27T02:10:39.325Z,8.60
2022-08-27T02:13:08.290Z,8.70
2022-08-27T02:15:40.416Z,8.10
2022-08-27T02:18:08.960Z,8.57
2022-08-27T02:20:36.994Z,8.60
2022-08-27T02:23:05.147Z,8.60
2022-08-27T02:25:33.519Z,8.75
2022-08-27T02:28:01.970Z,8.98
2022-08-27T02:30:32.328Z,11.10
2022-08-27T02:33:04.606Z,10.38
2022-08-27T02:35:40.895Z,10.40
2022-08-27T02:38:08.801Z,10.18
2022-08-27T02:40:37.482Z,9.75
2022-08-27T02:43:05.613Z,9.38
2022-08-27T02:45:32.927Z,9.23
2022-08-27T02:48:03.989Z,10.68
2022-08-27T02:50:31.670Z,10.63
2022-08-27T02:52:59.002Z,10.02
2022-08-27T02:55:26.347Z,10.43
2022-08-27T02:57:53.810Z,10.60
2022-08-27T03:00:23.294Z,9.95
2022-08-27T03:02:52.006Z,10.23
2022-08-27T03:05:20.258Z,10.93
2022-08-27T03:07:48.036Z,10.27
2022-08-27T03:10:19.653Z,10.10
2022-08-27T03:12:47.202Z,10.48
2022-08-27T03:15:18.347Z,10.82
2022-08-27T03:18:04.955Z,10.93
2022-08-27T03:20:33.422Z,10.35
2022-08-27T03:23:01.492Z,10.70
2022-08-27T03:25:29.096Z,10.18
2022-08-27T03:27:56.484Z,11.18
2022-08-27T03:30:24.985Z,11.15
2022-08-27T03:32:52.568Z,11.00
2022-08-27T03:35:21.799Z,10.55
2022-08-27T03:37:50.507Z,10.95
2022-08-27T03:40:19.935Z,10.82
2022-08-27T03:42:47.334Z,10.32
2022-08-27T03:45:15.540Z,10.75
2022-08-27T03:47:43.157Z,10.98
2022-08-27T03:50:11.808Z,11.32
2022-08-27T03:52:39.654Z,11.52
2022-08-27T03:55:09.578Z,10.13
2022-08-27T03:57:37.351Z,10.43
2022-08-27T04:00:11.809Z,9.90
2022-08-27T04:02:40.571Z,10.13
2022-08-27T04:05:13.070Z,10.82
2022-08-27T04:07:42.501Z,10.55
2022-08-27T04:10:12.667Z,9.55
2022-08-27T04:12:44.136Z,10.40
2022-08-27T04:15:13.601Z,9.55
2022-08-27T04:17:41.859Z,10.13
2022-08-27T04:20:34.006Z,10.70
2022-08-27T04:22:58.196Z,9.45
2022-08-27T04:25:25.465Z,9.90
2022-08-27T04:27:57.427Z,9.40
2022-08-27T04:30:24.753Z,9.70
2022-08-27T04:32:52.339Z,10.70
2022-08-27T04:35:19.636Z,9.90
2022-08-27T04:37:47.018Z,10.25
2022-08-27T04:40:14.499Z,10.07
2022-08-27T04:42:42.483Z,11.15
2022-08-27T04:45:10.528Z,11.23
2022-08-27T04:47:38.024Z,10.63
2022-08-27T04:50:06.400Z,10.52
2022-08-27T04:52:35.193Z,11.30
2022-08-27T04:55:09.273Z,12.05
2022-08-27T04:57:38.118Z,11.77
2022-08-27T05:00:07.977Z,11.35
2022-08-27T05:02:35.288Z,11.00
2022-08-27T05:05:02.606Z,11.77
2022-08-27T05:07:30.020Z,12.07
2022-08-27T05:09:57.484Z,11.75
2022-08-27T05:12:26.261Z,13.38
2022-08-27T05:14:55.316Z,12.45
2022-08-27T05:17:22.740Z,12.23
2022-08-27T05:19:50.244Z,13.38
2022-08-27T05:22:18.236Z,12.25
2022-08-27T05:24:50.006Z,11.13
2022-08-27T05:27:17.904Z,11.80
2022-08-27T05:29:45.385Z,11.50
2022-08-27T05:32:13.632Z,11.20
2022-08-27T05:34:41.027Z,11.65
2022-08-27T05:37:08.664Z,12.93
2022-08-27T05:39:35.946Z,12.70
2022-08-27T05:42:03.301Z,12.48
2022-08-27T05:44:40.985Z,12.30
2022-08-27T05:47:10.015Z,12.00
2022-08-27T05:49:38.105Z,11.45
2022-08-27T05:52:10.860Z,11.52
2022-08-27T05:54:42.647Z,10.70
2022-08-27T05:57:10.649Z,11.27
2022-08-27T05:59:57.226Z,10.85
2022-08-27T06:02:26.476Z,11.68
2022-08-27T06:04:54.151Z,11.00
2022-08-27T06:07:27.984Z,11.50
2022-08-27T06:12:28.045Z,10.05
2022-08-27T06:14:56.111Z,11.03
2022-08-27T06:17:23.418Z,10.70
2022-08-27T06:19:50.836Z,11.27
2022-08-27T06:22:56.964Z,10.45
2022-08-27T06:25:24.359Z,10.73
2022-08-27T06:27:51.664Z,10.40
2022-08-27T06:30:19.075Z,10.20
2022-08-27T06:32:46.614Z,10.77
2022-08-27T06:35:13.914Z,11.02
2022-08-27T06:37:41.355Z,10.75
2022-08-27T06:40:10.819Z,11.73
2022-08-27T06:42:38.987Z,12.35
2022-08-27T06:45:08.145Z,11.50
2022-08-27T06:47:35.417Z,10.80
2022-08-27T06:50:03.174Z,10.48
2022-08-27T06:52:30.466Z,10.68
2022-08-27T06:54:58.159Z,10.63
2022-08-27T06:57:25.499Z,10.85
2022-08-27T06:59:52.836Z,10.55
2022-08-27T07:02:20.460Z,10.23
2022-08-27T07:04:47.941Z,10.45
2022-08-27T07:07:15.580Z,9.27
2022-08-27T07:10:01.980Z,9.75
2022-08-27T07:12:31.623Z,9.55
2022-08-27T07:14:58.893Z,9.65
2022-08-27T07:17:26.928Z,9.27
2022-08-27T07:19:54.316Z,9.90
2022-08-27T07:22:21.607Z,9.30
2022-08-27T07:24:48.847Z,8.07
2022-08-27T07:27:16.293Z,7.45
2022-08-27T07:29:43.621Z,7.20
2022-08-27T07:32:11.138Z,6.95
2022-08-27T07:34:38.422Z,7.05
2022-08-27T07:37:06.986Z,7.80
2022-08-27T07:39:34.347Z,7.00
2022-08-27T07:42:20.126Z,7.35
2022-08-27T07:44:47.885Z,7.00
2022-08-27T07:47:15.126Z,6.50
2022-08-27T07:49:42.469Z,6.70
2022-08-27T07:52:10.068Z,6.88
2022-08-27T07:54:37.702Z,7.10
2022-08-27T07:57:05.235Z,6.68
2022-08-27T07:59:32.973Z,6.20
2022-08-27T08:02:00.418Z,6.03
2022-08-27T08:04:28.034Z,5.72
2022-08-27T08:06:56.004Z,6.55
2022-08-27T08:09:25.124Z,6.30
2022-08-27T08:11:53.564Z,6.90
2022-08-27T08:14:21.506Z,7.10
2022-08-27T08:16:49.646Z,6.47
2022-08-27T08:19:17.497Z,6.70
2022-08-27T08:21:44.831Z,6.70
2022-08-27T08:24:12.179Z,6.72
2022-08-27T08:26:41.948Z,6.20
2022-08-27T08:29:09.512Z,6.75
2022-08-27T08:31:42.761Z,6.40
2022-08-27T08:34:11.294Z,6.38
2022-08-27T08:36:42.435Z,6.65
2022-08-27T08:39:13.472Z,6.93
2022-08-27T08:41:59.057Z,7.30
2022-08-27T08:44:43.408Z,7.03
2022-08-27T08:47:31.763Z,7.07
2022-08-27T08:50:26.431Z,7.45
2022-08-27T08:52:59.847Z,7.45
2022-08-27T08:55:39.119Z,7.45
2022-08-27T08:58:35.189Z,7.10
2022-08-27T09:01:07.093Z,6.90
2022-08-27T09:03:40.865Z,6.25
2022-08-27T09:06:16.893Z,6.55
2022-08-27T09:08:45.273Z,6.38
2022-08-27T09:11:21.893Z,6.18
2022-08-27T09:13:56.037Z,6.95
2022-08-27T09:16:23.649Z,7.60
2022-08-27T09:19:00.435Z,6.32
2022-08-27T09:21:42.847Z,6.45
2022-08-27T09:24:24.866Z,5.70
2022-08-27T09:26:52.754Z,5.97
2022-08-27T09:29:27.488Z,6.55
2022-08-27T09:32:00.815Z,6.50
2022-08-27T09:34:42.520Z,5.63
2022-08-27T09:37:21.524Z,5.15
2022-08-27T09:40:22.568Z,5.53
2022-08-27T09:42:54.922Z,6.00
2022-08-27T09:45:27.521Z,5.50
2022-08-27T09:48:14.053Z,5.70
2022-08-27T09:50:53.436Z,6.30
2022-08-27T09:53:44.755Z,5.50
2022-08-27T09:56:40.294Z,5.80
2022-08-27T09:59:22.777Z,5.40
2022-08-27T10:02:04.428Z,5.90
2022-08-27T10:04:51.381Z,5.90
2022-08-27T10:07:36.816Z,5.93
2022-08-27T10:10:43.673Z,5.78
2022-08-27T10:13:25.183Z,5.43
2022-08-27T10:16:11.023Z,6.10
2022-08-27T10:18:53.512Z,5.60
2022-08-27T10:22:03.401Z,5.55
2022-08-27T10:24:44.185Z,6.15
2022-08-27T10:27:26.726Z,5.90
2022-08-27T10:30:02.971Z,5.80
2022-08-27T10:32:39.285Z,6.03
2022-08-27T10:35:54.754Z,6.13
2022-08-27T10:38:40.049Z,5.68
2022-08-27T10:41:34.285Z,5.60
2022-08-27T10:44:24.215Z,5.63
2022-08-27T10:47:05.004Z,5.35
2022-08-27T10:49:52.118Z,5.75
2022-08-27T10:52:55.796Z,6.10
2022-08-27T10:55:33.858Z,5.73
2022-08-27T10:59:03.149Z,5.40
2022-08-27T11:02:14.582Z,5.10
2022-08-27T11:04:52.632Z,5.57
2022-08-27T11:07:33.309Z,5.45
2022-08-27T11:10:04.816Z,5.40
2022-08-27T11:12:42.589Z,5.38
2022-08-27T11:15:32.268Z,5.85
2022-08-27T11:18:19.195Z,5.80
2022-08-27T11:21:10.857Z,5.45
2022-08-27T11:23:47.262Z,5.85
2022-08-27T11:26:14.822Z,5.60
2022-08-27T11:28:58.843Z,6.05
2022-08-27T11:31:43.710Z,5.65
2022-08-27T11:34:35.120Z,5.50
2022-08-27T11:37:04.923Z,5.95
2022-08-27T11:40:04.048Z,5.93
2022-08-27T11:42:42.488Z,5.55
2022-08-27T11:45:34.675Z,6.00
2022-08-27T11:48:37.488Z,6.03
2022-08-27T11:51:12.897Z,5.75
2022-08-27T11:53:57.221Z,5.30
2022-08-27T11:56:45.507Z,6.07
2022-08-27T11:59:27.133Z,5.82
2022-08-27T12:02:00.571Z,6.10
2022-08-27T12:04:39.828Z,5.57
2022-08-27T12:07:17.499Z,5.82
2022-08-27T12:09:56.747Z,5.95
2022-08-27T12:12:48.115Z,5.43
2022-08-27T12:15:34.220Z,6.25
2022-08-27T12:18:36.888Z,6.00
2022-08-27T12:21:40.917Z,5.70
2022-08-27T12:24:44.482Z,5.85
2022-08-27T12:27:28.318Z,5.77
2022-08-27T12:30:34.637Z,6.07
2022-08-27T12:33:36.848Z,6.05
2022-08-27T12:36:17.493Z,5.43
2022-08-27T12:38:59.685Z,6.07
2022-08-27T12:41:44.228Z,6.30
2022-08-27T12:44:33.743Z,5.80
2022-08-27T12:47:16.271Z,5.80
2022-08-27T12:49:55.783Z,5.90
2022-08-27T12:52:42.063Z,5.88
2022-08-27T12:55:12.505Z,5.88
2022-08-27T12:58:31.756Z,6.15
2022-08-27T13:01:43.161Z,5.88
2022-08-27T13:04:24.874Z,6.28
2022-08-27T13:06:52.780Z,5.57
2022-08-27T13:09:33.462Z,5.78
2022-08-27T13:12:04.787Z,5.45
2022-08-27T13:14:41.583Z,5.50
2022-08-27T13:17:19.154Z,5.32
2022-08-27T13:19:59.685Z,5.72
2022-08-27T13:22:32.583Z,5.53
2022-08-27T13:25:00.357Z,5.80
2022-08-27T13:27:33.197Z,5.30
2022-08-27T13:30:08.182Z,5.20
2022-08-27T13:32:38.378Z,6.57
2022-08-27T13:35:07.063Z,5.75
2022-08-27T13:37:36.209Z,5.13
2022-08-27T13:40:05.314Z,4.95
2022-08-27T13:42:33.491Z,5.00
2022-08-27T13:45:07.853Z,5.88
2022-08-27T13:47:46.139Z,5.00
2022-08-27T13:50:25.977Z,5.20
2022-08-27T13:53:25.327Z,5.53
2022-08-27T13:55:54.289Z,5.20
2022-08-27T13:58:31.108Z,5.22
2022-08-27T14:01:09.270Z,5.90
2022-08-27T14:03:50.167Z,4.85
2022-08-27T14:06:53.702Z,4.90
2022-08-27T14:09:28.786Z,5.40
2022-08-27T14:12:05.832Z,5.32
2022-08-27T14:14:41.715Z,5.30
2022-08-27T14:17:27.909Z,5.10
2022-08-27T14:20:05.911Z,5.20
2022-08-27T14:22:36.493Z,4.75
2022-08-27T14:25:04.400Z,5.00
2022-08-27T14:27:32.122Z,5.20
2022-08-27T14:29:59.553Z,5.40
2022-08-27T14:32:26.978Z,5.40
2022-08-27T14:34:54.456Z,5.55
2022-08-27T14:37:21.895Z,5.65
2022-08-27T14:39:49.255Z,5.20
2022-08-27T14:42:17.783Z,5.30
2022-08-27T14:44:45.469Z,5.28
2022-08-27T14:47:16.167Z,5.47
2022-08-27T14:49:46.348Z,5.90
2022-08-27T14:52:17.785Z,6.30
2022-08-27T14:54:45.161Z,5.00
2022-08-27T14:57:13.555Z,5.03
2022-08-27T14:59:41.897Z,5.40
2022-08-27T15:02:14.146Z,5.00
2022-08-27T15:04:42.370Z,5.20
2022-08-27T15:07:14.820Z,5.00
2022-08-27T15:09:42.703Z,5.60
2022-08-27T15:12:16.881Z,5.10
2022-08-27T15:17:49.809Z,5.18
2022-08-27T15:20:20.066Z,4.85
2022-08-27T15:22:52.271Z,4.90
2022-08-27T15:25:21.267Z,4.90
2022-08-27T15:27:49.565Z,4.93
2022-08-27T15:30:27.092Z,4.68
2022-08-27T15:32:55.630Z,5.43
2022-08-27T15:35:27.046Z,4.88
2022-08-27T15:37:57.041Z,5.28
2022-08-27T15:40:26.913Z,4.78
2022-08-27T15:43:06.024Z,5.03
2022-08-27T15:45:35.390Z,4.88
2022-08-27T15:48:03.174Z,5.10
2022-08-27T15:53:37.919Z,5.00
2022-08-27T15:56:11.026Z,4.82
2022-08-27T15:58:41.336Z,5.22
2022-08-27T16:01:17.523Z,5.10
2022-08-27T16:03:47.058Z,5.65
2022-08-27T16:06:20.992Z,5.15
2022-08-27T16:09:01.934Z,5.47
2022-08-27T16:15:08.468Z,5.13
2022-08-27T16:18:01.675Z,5.55
2022-08-27T16:20:33.084Z,5.23
2022-08-27T16:34:56.286Z,5.22
2022-08-27T16:37:29.938Z,5.30
2022-08-27T16:40:03.934Z,5.13
2022-08-27T16:42:36.483Z,5.00
2022-08-27T16:48:01.279Z,5.47
2022-08-27T17:03:52.108Z,5.90
2022-08-27T17:16:48.143Z,7.93
2022-08-27T17:19:19.493Z,7.10
2022-08-27T17:21:49.470Z,6.13
2022-08-27T17:24:20.083Z,6.38
2022-08-27T17:26:49.264Z,6.15
2022-08-27T17:29:19.433Z,6.25
2022-08-27T17:31:54.331Z,6.63
2022-08-27T17:34:25.555Z,6.25
2022-08-27T17:37:19.003Z,6.00
2022-08-27T17:39:48.981Z,6.65
2022-08-27T17:42:18.182Z,6.30
2022-08-27T17:44:48.283Z,5.97
2022-08-27T17:47:21.151Z,6.05
2022-08-27T17:49:49.837Z,6.20
2022-08-27T17:52:23.534Z,6.07
2022-08-27T17:57:40.466Z,6.30
2022-08-27T18:00:13.157Z,6.68
2022-08-27T18:02:47.268Z,6.57
2022-08-27T18:05:19.182Z,6.38
2022-08-27T18:07:48.042Z,7.05
2022-08-27T18:10:23.269Z,6.53
2022-08-27T18:12:55.802Z,6.65
2022-08-27T18:15:30.448Z,6.50
2022-08-27T18:18:00.392Z,6.82
2022-08-27T18:20:31.399Z,6.70
2022-08-27T18:23:00.357Z,6.72
2022-08-27T18:25:35.791Z,6.72
2022-08-27T18:28:13.672Z,6.55
2022-08-27T18:30:44.722Z,6.68
2022-08-27T18:33:14.064Z,6.70
2022-08-27T18:35:44.629Z,7.55
2022-08-27T18:38:13.941Z,7.28
2022-08-27T18:40:49.468Z,7.32
2022-08-27T18:43:21.454Z,6.80
2022-08-27T18:45:49.454Z,7.50
2022-08-27T18:48:24.307Z,7.95
2022-08-27T18:51:02.381Z,7.65
2022-08-27T18:53:34.902Z,8.65
2022-08-27T18:56:06.917Z,8.90
2022-08-27T18:58:35.712Z,9.15
2022-08-27T19:01:11.152Z,8.63
2022-08-27T19:03:48.060Z,8.00
2022-08-27T19:06:23.076Z,8.88
2022-08-27T19:08:55.169Z,8.93
2022-08-27T19:11:26.766Z,8.85
2022-08-27T19:13:58.293Z,9.18
2022-08-27T19:16:49.511Z,8.80
2022-08-27T19:19:22.742Z,9.40
2022-08-27T19:21:58.592Z,8.30
2022-08-27T19:24:31.992Z,8.93
2022-08-27T19:27:05.755Z,8.35
2022-08-27T19:29:35.867Z,9.60
2022-08-27T19:32:04.372Z,8.68
2022-08-27T19:34:34.833Z,8.40
2022-08-27T19:37:05.684Z,8.75
2022-08-27T19:39:39.189Z,8.55
2022-08-27T19:42:07.938Z,8.35
2022-08-27T19:44:37.423Z,8.18
2022-08-27T19:47:11.022Z,6.95
2022-08-27T19:49:40.528Z,6.63
2022-08-27T19:52:09.678Z,7.32
2022-08-27T19:54:56.957Z,7.20
2022-08-27T19:57:26.138Z,7.82
2022-08-27T19:59:54.824Z,7.72
2022-08-27T20:02:23.546Z,8.05
2022-08-27T20:05:16.438Z,8.23
2022-08-27T20:07:40.826Z,8.43
2022-08-27T20:10:09.520Z,8.02
2022-08-27T20:12:44.486Z,8.07
2022-08-27T20:15:14.554Z,7.78
2022-08-27T20:17:45.542Z,7.72
2022-08-27T20:20:16.008Z,7.15
2022-08-27T20:22:48.393Z,6.82
2022-08-27T20:25:22.136Z,7.38
2022-08-27T20:30:27.058Z,7.20
2022-08-27T20:32:56.341Z,6.93
2022-08-27T20:35:27.028Z,7.32
2022-08-27T20:38:01.208Z,7.60
2022-08-27T20:40:36.662Z,8.27
2022-08-27T20:43:08.504Z,7.50
2022-08-27T20:45:41.059Z,8.18
2022-08-27T20:48:10.610Z,7.90
2022-08-27T20:50:40.885Z,7.75
2022-08-27T20:53:09.500Z,8.70
2022-08-27T20:55:42.340Z,8.32
2022-08-27T20:58:32.596Z,8.90
2022-08-27T21:01:01.295Z,8.20
2022-08-27T21:03:28.712Z,8.25
2022-08-27T21:05:56.868Z,8.15
2022-08-27T21:08:24.577Z,8.50
2022-08-27T21:10:57.027Z,8.18
2022-08-27T21:13:26.749Z,8.07
2022-08-27T21:15:56.301Z,8.15
2022-08-27T21:18:29.886Z,8.30
2022-08-27T21:21:00.021Z,7.85
2022-08-27T21:23:29.565Z,7.80
2022-08-27T21:26:24.188Z,8.15
2022-08-27T21:28:55.869Z,7.95
2022-08-27T21:31:25.284Z,8.15
2022-08-27T21:33:54.278Z,8.20
2022-08-27T21:36:22.807Z,8.07
2022-08-27T21:38:50.845Z,8.43
2022-08-27T21:41:20.385Z,8.00
2022-08-27T21:43:48.441Z,8.35
2022-08-27T21:46:16.946Z,8.77
2022-08-27T21:48:44.566Z,8.02
2022-08-27T21:51:20.036Z,7.93
2022-08-27T21:53:52.991Z,7.72
2022-08-27T21:56:20.678Z,7.85
2022-08-27T21:58:48.524Z,8.52
2022-08-27T22:01:16.097Z,7.68
2022-08-27T22:03:50.868Z,8.70
2022-08-27T22:06:20.783Z,8.40
2022-08-27T22:08:48.958Z,7.97
2022-08-27T22:11:21.999Z,8.45
2022-08-27T22:13:52.724Z,8.00
2022-08-27T22:16:21.168Z,7.90
2022-08-27T22:18:50.889Z,7.82
2022-08-27T22:23:51.577Z,7.82
2022-08-27T22:26:21.113Z,7.82
2022-08-27T22:28:49.541Z,8.05
2022-08-27T22:31:18.034Z,8.20
2022-08-27T22:33:45.953Z,8.25
2022-08-27T22:36:14.180Z,8.27
2022-08-27T22:38:43.032Z,8.63
2022-08-27T22:41:10.607Z,8.43
2022-08-27T22:43:38.321Z,8.15
2022-08-27T22:46:06.255Z,8.15
2022-08-27T22:48:34.911Z,8.35
2022-08-27T22:51:03.230Z,8.68
2022-08-27T22:53:31.347Z,7.70
2022-08-27T22:56:00.239Z,8.30
2022-08-27T22:58:27.910Z,8.70
2022-08-27T23:00:56.872Z,8.57
2022-08-27T23:03:26.336Z,8.10
2022-08-27T23:05:55.457Z,8.10
2022-08-27T23:08:24.615Z,8.70
2022-08-27T23:10:53.233Z,7.50
2022-08-27T23:13:21.872Z,7.68
2022-08-27T23:15:49.945Z,8.75
2022-08-27T23:18:18.189Z,8.38
2022-08-27T23:20:45.863Z,7.97
2022-08-27T23:23:13.349Z,7.90
2022-08-27T23:25:59.857Z,7.93
2022-08-27T23:28:27.580Z,8.20
2022-08-27T23:30:56.207Z,8.10
2022-08-27T23:33:24.905Z,8.13
2022-08-27T23:35:55.612Z,7.72
2022-08-27T23:38:23.748Z,8.75
2022-08-27T23:40:52.835Z,8.23
2022-08-27T23:43:21.713Z,8.40
2022-08-27T23:45:49.076Z,7.70
2022-08-27T23:48:16.930Z,8.60
2022-08-27T23:50:47.254Z,8.15
2022-08-27T23:53:15.660Z,8.18
2022-08-27T23:55:43.612Z,8.40
2022-08-27T23:58:18.669Z,8.65
